createdAt,value
2018-08-20T00:02:09.485Z,79.70
2018-08-20T00:04:54.289Z,79.90
2018-08-20T00:07:24.404Z,79.90
2018-08-20T00:09:55.229Z,80.10
2018-08-20T00:12:25.165Z,80.20
2018-08-20T00:14:55.089Z,81.10
2018-08-20T00:17:24.998Z,80.80
2018-08-20T00:19:55.073Z,80.80
2018-08-20T00:22:24.859Z,80.70
2018-08-20T00:25:10.249Z,81.00
2018-08-20T00:27:40.121Z,81.60
2018-08-20T00:30:13.010Z,82.80
2018-08-20T00:32:44.288Z,82.90
2018-08-20T00:35:16.315Z,83.20
2018-08-20T00:37:51.060Z,83.50
2018-08-20T00:40:21.828Z,83.60
2018-08-20T00:42:51.737Z,84.30
2018-08-20T00:45:21.639Z,84.60
2018-08-20T00:47:51.513Z,85.30
2018-08-20T00:50:21.404Z,85.60
2018-08-20T00:52:52.179Z,86.20
2018-08-20T00:55:22.060Z,86.20
2018-08-20T00:57:51.948Z,86.60
2018-08-20T01:00:21.780Z,86.80
2018-08-20T01:02:51.739Z,87.40
2018-08-20T01:05:21.573Z,88.00
2018-08-20T01:07:51.508Z,88.40
2018-08-20T01:10:21.342Z,88.40
2018-08-20T01:12:51.400Z,88.20
2018-08-20T01:15:21.308Z,88.50
2018-08-20T01:17:51.232Z,88.80
2018-08-20T01:20:21.325Z,89.30
2018-08-20T01:22:51.214Z,89.90
2018-08-20T01:25:21.099Z,90.00
2018-08-20T01:27:51.393Z,89.80
2018-08-20T01:30:21.308Z,90.00
2018-08-20T01:32:51.429Z,90.10
2018-08-20T01:35:28.230Z,90.40
2018-08-20T01:37:58.303Z,90.40
2018-08-20T01:40:28.223Z,90.70
2018-08-20T01:42:58.203Z,90.50
2018-08-20T01:45:27.908Z,90.10
2018-08-20T01:47:57.698Z,90.20
2018-08-20T01:50:28.650Z,90.00
2018-08-20T01:52:58.560Z,89.60
2018-08-20T01:55:28.324Z,89.60
2018-08-20T01:57:58.039Z,89.60
2018-08-20T02:00:28.372Z,89.50
2018-08-20T02:03:02.664Z,89.20
2018-08-20T02:05:33.030Z,88.60
2018-08-20T02:08:03.019Z,88.70
2018-08-20T02:10:33.319Z,89.40
2018-08-20T02:13:03.683Z,90.00
2018-08-20T02:15:33.727Z,90.20
2018-08-20T02:18:03.893Z,89.90
2018-08-20T02:20:33.990Z,89.30
2018-08-20T02:23:04.279Z,89.60
2018-08-20T02:25:34.603Z,89.80
2018-08-20T02:28:04.773Z,89.90
2018-08-20T02:30:34.814Z,90.40
2018-08-20T02:33:05.359Z,90.30
2018-08-20T02:35:35.798Z,90.00
2018-08-20T02:38:06.265Z,90.00
2018-08-20T02:40:36.288Z,90.00
2018-08-20T02:43:06.620Z,89.60
2018-08-20T02:45:36.433Z,89.80
2018-08-20T02:48:07.070Z,90.10
2018-08-20T02:50:36.918Z,90.30
2018-08-20T02:53:07.050Z,90.30
2018-08-20T02:55:36.903Z,90.00
2018-08-20T02:58:06.740Z,90.10
2018-08-20T03:00:36.503Z,90.50
2018-08-20T03:03:06.495Z,90.70
2018-08-20T03:05:37.389Z,91.10
2018-08-20T03:08:08.269Z,91.30
2018-08-20T03:10:38.029Z,91.20
2018-08-20T03:13:08.010Z,91.00
2018-08-20T03:15:38.028Z,90.70
2018-08-20T03:18:07.982Z,91.10
2018-08-20T03:20:38.003Z,91.30
2018-08-20T03:23:08.262Z,91.80
2018-08-20T03:25:38.179Z,91.80
2018-08-20T03:28:08.175Z,91.60
2018-08-20T03:30:38.124Z,91.90
2018-08-20T03:33:07.928Z,92.00
2018-08-20T03:35:37.913Z,92.10
2018-08-20T03:38:07.904Z,92.40
2018-08-20T03:40:37.615Z,92.40
2018-08-20T03:43:07.889Z,92.60
2018-08-20T03:45:37.653Z,92.60
2018-08-20T03:48:07.545Z,92.50
2018-08-20T03:50:37.638Z,92.70
2018-08-20T03:53:07.699Z,92.50
2018-08-20T03:55:37.393Z,92.70
2018-08-20T03:58:07.414Z,93.00
2018-08-20T04:00:37.438Z,92.60
2018-08-20T04:03:07.775Z,92.70
2018-08-20T04:05:37.540Z,92.30
2018-08-20T04:08:08.723Z,91.10
2018-08-20T04:10:39.644Z,91.50
2018-08-20T04:13:09.598Z,91.70
2018-08-20T04:15:39.595Z,91.50
2018-08-20T04:18:09.707Z,92.10
2018-08-20T04:20:39.584Z,91.80
2018-08-20T04:23:09.622Z,91.40
2018-08-20T04:25:39.505Z,90.70
2018-08-20T04:28:09.490Z,91.10
2018-08-20T04:30:39.461Z,91.90
2018-08-20T04:33:09.734Z,91.20
2018-08-20T04:35:40.552Z,90.70
2018-08-20T04:38:10.245Z,91.50
2018-08-20T04:40:40.224Z,91.70
2018-08-20T04:43:10.870Z,91.30
2018-08-20T04:45:40.822Z,92.00
2018-08-20T04:48:10.920Z,92.20
2018-08-20T04:50:41.212Z,92.30
2018-08-20T04:53:10.945Z,92.20
2018-08-20T04:55:41.009Z,91.70
2018-08-20T04:58:11.029Z,91.60
2018-08-20T05:00:40.873Z,91.50
2018-08-20T05:03:14.807Z,91.90
2018-08-20T05:05:44.642Z,92.00
2018-08-20T05:08:14.576Z,92.40
2018-08-20T05:10:44.738Z,92.30
2018-08-20T05:13:14.394Z,92.40
2018-08-20T05:15:44.387Z,92.50
2018-08-20T05:18:14.137Z,92.20
2018-08-20T05:20:44.387Z,92.20
2018-08-20T05:23:15.410Z,92.50
2018-08-20T05:25:45.097Z,92.90
2018-08-20T05:28:14.954Z,93.00
2018-08-20T05:30:44.894Z,92.70
2018-08-20T05:33:15.003Z,92.30
2018-08-20T05:35:44.985Z,92.20
2018-08-20T05:38:15.260Z,92.30
2018-08-20T05:40:45.260Z,92.70
2018-08-20T05:43:15.039Z,93.40
2018-08-20T05:45:45.254Z,93.20
2018-08-20T05:48:15.072Z,93.20
2018-08-20T05:50:44.912Z,92.80
2018-08-20T05:53:15.137Z,92.90
2018-08-20T05:55:44.968Z,92.50
2018-08-20T05:58:14.938Z,92.40
2018-08-20T06:00:45.033Z,92.20
2018-08-20T06:03:15.197Z,92.40
2018-08-20T06:05:45.149Z,92.40
2018-08-20T06:08:15.063Z,92.20
2018-08-20T06:10:44.993Z,92.30
2018-08-20T06:13:14.920Z,92.30
2018-08-20T06:15:44.833Z,92.40
2018-08-20T06:18:14.710Z,92.50
2018-08-20T06:20:44.500Z,92.40
2018-08-20T06:28:12.502Z,92.50
2018-08-20T06:30:42.574Z,93.20
2018-08-20T06:33:12.497Z,93.50
2018-08-20T06:35:42.393Z,93.60
2018-08-20T06:38:12.294Z,94.00
2018-08-20T06:40:42.221Z,94.60
2018-08-20T06:43:12.073Z,95.00
2018-08-20T06:45:42.010Z,95.20
2018-08-20T06:48:11.880Z,95.30
2018-08-20T06:50:41.874Z,95.60
2018-08-20T06:53:11.818Z,96.00
2018-08-20T06:55:41.877Z,96.00
2018-08-20T06:58:11.688Z,96.10
2018-08-20T07:00:41.559Z,96.00
2018-08-20T07:03:11.459Z,96.10
2018-08-20T07:05:41.561Z,96.10
2018-08-20T07:08:11.317Z,96.10
2018-08-20T07:10:46.294Z,95.80
2018-08-20T07:13:27.135Z,96.30
2018-08-20T07:15:57.230Z,96.10
2018-08-20T07:18:27.216Z,96.10
2018-08-20T07:20:57.566Z,96.40
2018-08-20T07:23:27.836Z,96.20
2018-08-20T07:25:58.083Z,96.60
2018-08-20T07:28:28.000Z,96.30
2018-08-20T07:30:58.064Z,96.60
2018-08-20T07:33:27.963Z,96.60
2018-08-20T07:35:57.939Z,96.70
2018-08-20T07:38:27.725Z,97.20
2018-08-20T07:40:57.520Z,97.00
2018-08-20T07:43:27.384Z,96.90
2018-08-20T07:45:58.434Z,96.50
2018-08-20T07:48:29.567Z,97.20
2018-08-20T07:50:59.715Z,97.40
2018-08-20T07:53:29.579Z,97.40
2018-08-20T07:55:59.765Z,97.20
2018-08-20T07:58:29.822Z,97.00
2018-08-20T08:00:59.797Z,97.10
2018-08-20T08:03:31.080Z,97.10
2018-08-20T08:06:03.033Z,97.10
2018-08-20T08:08:33.166Z,97.10
2018-08-20T08:11:03.328Z,97.00
2018-08-20T08:13:33.248Z,96.60
2018-08-20T08:16:03.357Z,96.80
2018-08-20T08:18:33.429Z,97.00
2018-08-20T08:21:03.363Z,97.30
2018-08-20T08:23:33.373Z,97.20
2018-08-20T08:26:03.300Z,97.70
2018-08-20T08:28:33.318Z,97.60
2018-08-20T08:31:03.357Z,98.10
2018-08-20T08:33:33.448Z,98.40
2018-08-20T08:36:03.617Z,98.20
2018-08-20T08:38:33.598Z,98.20
2018-08-20T08:41:03.674Z,98.00
2018-08-20T08:43:33.564Z,97.90
2018-08-20T08:46:03.613Z,97.80
2018-08-20T08:48:33.411Z,97.50
2018-08-20T08:51:03.214Z,97.60
2018-08-20T08:53:33.107Z,97.90
2018-08-20T08:56:03.268Z,98.00
2018-08-20T08:58:33.254Z,98.10
2018-08-20T09:01:03.908Z,97.90
2018-08-20T09:03:33.949Z,97.60
2018-08-20T09:06:04.494Z,97.50
2018-08-20T09:08:34.559Z,97.70
2018-08-20T09:11:04.653Z,98.00
2018-08-20T09:13:34.701Z,98.00
2018-08-20T09:16:04.758Z,98.50
2018-08-20T09:18:34.833Z,98.70
2018-08-20T09:21:04.813Z,99.00
2018-08-20T09:23:34.873Z,99.00
2018-08-20T09:26:05.187Z,98.80
2018-08-20T09:28:35.679Z,99.10
2018-08-20T09:31:05.666Z,99.60
2018-08-20T09:33:35.603Z,99.10
2018-08-20T09:36:05.659Z,98.70
2018-08-20T09:38:35.629Z,98.60
2018-08-20T09:41:05.769Z,98.10
2018-08-20T09:43:35.775Z,98.20
2018-08-20T09:46:05.829Z,97.80
2018-08-20T09:48:35.757Z,97.50
2018-08-20T09:51:06.044Z,98.10
2018-08-20T09:53:36.069Z,98.40
2018-08-20T09:56:06.240Z,98.20
2018-08-20T09:58:36.384Z,98.20
2018-08-20T10:01:06.229Z,97.70
2018-08-20T10:03:36.238Z,97.30
2018-08-20T10:06:06.589Z,97.10
2018-08-20T10:13:33.208Z,96.80
2018-08-20T10:16:03.264Z,97.30
2018-08-20T10:18:33.351Z,97.70
2018-08-20T10:21:03.433Z,97.40
2018-08-20T10:23:33.454Z,96.60
2018-08-20T10:26:03.449Z,96.20
2018-08-20T10:28:33.395Z,96.00
2018-08-20T10:31:03.399Z,96.10
2018-08-20T10:33:33.719Z,96.10
2018-08-20T10:36:03.768Z,95.70
2018-08-20T10:38:34.028Z,95.50
2018-08-20T10:41:04.148Z,95.20
2018-08-20T10:43:34.133Z,95.40
2018-08-20T10:46:09.165Z,94.80
2018-08-20T10:48:39.277Z,94.60
2018-08-20T10:51:09.267Z,93.70
2018-08-20T10:53:39.285Z,93.60
2018-08-20T10:56:09.234Z,93.10
2018-08-20T10:58:39.286Z,92.80
2018-08-20T11:01:09.083Z,93.10
2018-08-20T11:03:43.460Z,92.90
2018-08-20T11:06:13.443Z,92.40
2018-08-20T11:08:43.294Z,91.80
2018-08-20T11:11:13.288Z,92.10
2018-08-20T11:13:43.139Z,90.90
2018-08-20T11:16:13.178Z,91.10
2018-08-20T11:18:43.244Z,91.30
2018-08-20T11:21:13.328Z,90.60
2018-08-20T11:23:43.279Z,90.80
2018-08-20T11:26:13.288Z,90.90
2018-08-20T11:28:43.285Z,90.40
2018-08-20T11:31:13.317Z,89.00
2018-08-20T11:33:43.444Z,89.00
2018-08-20T11:36:13.215Z,87.90
2018-08-20T11:38:43.092Z,87.60
2018-08-20T11:41:12.950Z,87.60
2018-08-20T11:43:42.855Z,90.30
2018-08-20T11:46:12.880Z,90.70
2018-08-20T11:48:42.690Z,90.40
2018-08-20T11:51:12.951Z,90.50
2018-08-20T11:53:43.303Z,90.60
2018-08-20T11:56:13.208Z,90.40
2018-08-20T11:58:43.348Z,90.50
2018-08-20T12:01:13.293Z,90.40
2018-08-20T12:03:43.447Z,90.50
2018-08-20T12:06:13.463Z,89.90
2018-08-20T12:08:43.613Z,90.10
2018-08-20T12:11:13.459Z,90.30
2018-08-20T12:13:43.474Z,90.70
2018-08-20T12:16:13.249Z,90.40
2018-08-20T12:18:43.609Z,90.30
2018-08-20T12:21:14.549Z,90.50
2018-08-20T12:23:45.372Z,90.20
2018-08-20T12:26:15.153Z,90.60
2018-08-20T12:28:45.272Z,91.10
2018-08-20T12:31:15.648Z,91.00
2018-08-20T12:33:45.792Z,91.80
2018-08-20T12:36:16.064Z,91.50
2018-08-20T12:38:46.163Z,91.80
2018-08-20T12:41:16.284Z,93.60
2018-08-20T12:43:46.208Z,95.10
2018-08-20T12:46:18.920Z,95.80
2018-08-20T12:48:51.375Z,95.70
2018-08-20T12:51:22.324Z,95.40
2018-08-20T12:53:52.344Z,95.80
2018-08-20T12:56:22.675Z,95.60
2018-08-20T12:58:53.520Z,95.90
2018-08-20T13:01:23.347Z,96.20
2018-08-20T13:03:53.372Z,96.10
2018-08-20T13:06:23.257Z,95.80
2018-08-20T13:08:53.076Z,95.70
2018-08-20T13:11:23.084Z,95.30
2018-08-20T13:13:52.977Z,94.70
2018-08-20T13:16:23.033Z,94.20
2018-08-20T13:18:52.897Z,92.70
2018-08-20T13:21:23.092Z,92.40
2018-08-20T13:23:52.957Z,92.70
2018-08-20T13:26:22.840Z,91.30
2018-08-20T13:28:53.097Z,91.50
2018-08-20T13:31:23.080Z,91.10
2018-08-20T13:33:53.019Z,90.90
2018-08-20T13:36:22.877Z,90.90
2018-08-20T13:38:53.060Z,90.20
2018-08-20T13:41:23.472Z,90.80
2018-08-20T13:43:54.685Z,90.80
2018-08-20T13:46:25.656Z,88.80
2018-08-20T13:48:55.620Z,88.40
2018-08-20T13:51:25.633Z,88.90
2018-08-20T13:53:55.432Z,86.20
2018-08-20T13:56:25.372Z,84.80
2018-08-20T13:58:55.174Z,84.70
2018-08-20T14:01:25.158Z,84.60
2018-08-20T14:03:55.493Z,82.60
2018-08-20T14:06:25.343Z,83.60
2018-08-20T14:08:55.150Z,84.10
2018-08-20T14:11:25.348Z,84.20
2018-08-20T14:13:55.208Z,84.40
2018-08-20T14:16:25.292Z,86.70
2018-08-20T14:18:55.210Z,86.90
2018-08-20T14:21:25.169Z,86.20
2018-08-20T14:23:55.223Z,83.20
2018-08-20T14:26:25.527Z,83.40
2018-08-20T14:28:55.479Z,84.90
2018-08-20T14:31:25.476Z,84.70
2018-08-20T14:33:55.390Z,86.60
2018-08-20T14:36:25.590Z,87.20
2018-08-20T14:38:55.740Z,88.80
2018-08-20T14:41:26.063Z,87.70
2018-08-20T14:43:56.064Z,88.30
2018-08-20T14:46:26.324Z,89.60
2018-08-20T14:48:56.360Z,90.00
2018-08-20T14:51:26.503Z,90.00
2018-08-20T14:53:56.364Z,90.50
2018-08-20T14:56:26.785Z,90.60
2018-08-20T14:58:57.104Z,90.30
2018-08-20T15:01:27.126Z,90.80
2018-08-20T15:03:57.488Z,90.10
2018-08-20T15:06:27.773Z,89.90
2018-08-20T15:08:57.845Z,89.60
2018-08-20T15:11:27.746Z,90.00
2018-08-20T15:13:57.690Z,88.50
2018-08-20T15:16:27.643Z,87.10
2018-08-20T15:18:57.710Z,84.80
2018-08-20T15:21:27.649Z,84.30
2018-08-20T15:23:57.415Z,83.00
2018-08-20T15:26:27.306Z,83.70
2018-08-20T15:28:57.153Z,84.50
2018-08-20T15:31:27.009Z,84.80
2018-08-20T15:33:56.983Z,84.90
2018-08-20T15:36:26.938Z,84.20
2018-08-20T15:38:56.980Z,84.20
2018-08-20T15:41:26.902Z,82.90
2018-08-20T15:43:56.830Z,82.60
2018-08-20T15:46:26.924Z,82.90
2018-08-20T15:48:56.997Z,83.30
2018-08-20T15:51:27.188Z,82.50
2018-08-20T15:53:57.320Z,84.80
2018-08-20T15:56:28.065Z,84.20
2018-08-20T15:58:58.477Z,83.90
2018-08-20T16:01:28.521Z,84.20
2018-08-20T16:03:58.889Z,84.20
2018-08-20T16:06:28.714Z,84.50
2018-08-20T16:08:58.753Z,85.50
2018-08-20T16:11:29.945Z,85.90
2018-08-20T16:13:59.905Z,85.80
2018-08-20T16:16:29.919Z,83.70
2018-08-20T16:19:00.423Z,85.50
2018-08-20T16:21:30.599Z,86.20
2018-08-20T16:24:02.365Z,86.10
2018-08-20T16:26:32.538Z,85.60
2018-08-20T16:29:02.388Z,84.60
2018-08-20T16:31:32.505Z,84.00
2018-08-20T16:34:02.413Z,83.00
2018-08-20T16:36:32.528Z,83.50
2018-08-20T16:39:02.498Z,82.70
2018-08-20T16:41:32.578Z,81.20
2018-08-20T16:44:02.535Z,81.90
2018-08-20T16:46:32.791Z,82.50
2018-08-20T16:49:02.867Z,81.10
2018-08-20T16:51:32.980Z,81.00
2018-08-20T16:54:03.123Z,80.70
2018-08-20T16:56:33.067Z,79.30
2018-08-20T16:59:03.164Z,80.00
2018-08-20T17:01:33.389Z,81.50
2018-08-20T17:04:03.343Z,81.00
2018-08-20T17:06:48.726Z,79.50
2018-08-20T17:09:18.658Z,80.00
2018-08-20T17:11:48.612Z,78.90
2018-08-20T17:14:18.674Z,78.20
2018-08-20T17:16:50.109Z,77.10
2018-08-20T17:19:20.220Z,77.00
2018-08-20T17:21:50.195Z,76.20
2018-08-20T17:24:41.193Z,77.10
2018-08-20T17:27:12.527Z,75.50
2018-08-20T17:29:42.775Z,75.20
2018-08-20T17:32:13.086Z,75.90
2018-08-20T17:34:43.430Z,76.60
2018-08-20T17:37:13.270Z,77.10
2018-08-20T17:44:58.060Z,77.50
2018-08-20T17:47:28.627Z,75.70
2018-08-20T17:50:00.527Z,75.20
2018-08-20T17:52:35.240Z,76.00
2018-08-20T17:55:06.390Z,75.50
2018-08-20T17:57:36.507Z,77.40
2018-08-20T18:00:43.514Z,75.90
2018-08-20T18:03:20.313Z,75.10
2018-08-20T18:05:53.559Z,76.30
2018-08-20T18:08:24.962Z,75.30
2018-08-20T18:10:54.948Z,75.90
2018-08-20T18:13:41.978Z,74.10
2018-08-20T18:16:15.292Z,77.00
2018-08-20T18:18:52.584Z,74.30
2018-08-20T18:21:22.746Z,76.10
2018-08-20T18:23:52.915Z,73.90
2018-08-20T18:26:30.405Z,74.70
2018-08-20T18:29:00.435Z,76.10
2018-08-20T18:31:30.486Z,74.20
2018-08-20T18:34:00.757Z,74.20
2018-08-20T18:36:32.344Z,74.00
2018-08-20T18:39:08.737Z,74.70
2018-08-20T18:42:02.209Z,74.70
2018-08-20T18:44:32.200Z,76.30
2018-08-20T18:47:02.364Z,76.60
2018-08-20T18:49:32.550Z,75.80
2018-08-20T18:52:07.548Z,75.00
2018-08-20T18:57:35.980Z,73.70
2018-08-20T19:00:14.983Z,75.40
2018-08-20T19:02:49.293Z,74.10
2018-08-20T19:05:19.854Z,74.80
2018-08-20T19:07:49.991Z,75.60
2018-08-20T19:10:25.024Z,74.40
2018-08-20T19:12:55.070Z,74.60
2018-08-20T19:15:37.566Z,75.10
2018-08-20T19:18:10.049Z,75.20
2018-08-20T19:20:40.910Z,75.70
2018-08-20T19:23:11.058Z,75.40
2018-08-20T19:25:40.971Z,75.50
2018-08-20T19:28:25.409Z,75.00
2018-08-20T19:30:56.562Z,74.50
2018-08-20T19:33:27.949Z,74.10
2018-08-20T19:35:58.010Z,73.60
2018-08-20T19:38:28.495Z,73.70
2018-08-20T19:41:05.724Z,72.90
2018-08-20T19:43:40.752Z,73.50
2018-08-20T19:46:10.900Z,73.50
2018-08-20T19:48:41.056Z,73.30
2018-08-20T19:51:11.541Z,73.60
2018-08-20T19:53:42.326Z,73.60
2018-08-20T19:56:14.805Z,73.50
2018-08-20T19:58:45.334Z,74.00
2018-08-20T20:01:17.367Z,74.50
2018-08-20T20:03:49.080Z,75.10
2018-08-20T20:06:19.349Z,75.80
2018-08-20T20:08:49.231Z,76.90
2018-08-20T20:11:25.146Z,76.70
2018-08-20T20:14:01.178Z,77.10
2018-08-20T20:16:42.364Z,77.70
2018-08-20T20:19:12.349Z,78.20
2018-08-20T20:21:42.872Z,78.60
2018-08-20T20:24:13.175Z,79.00
2018-08-20T20:26:42.922Z,79.50
2018-08-20T20:29:12.724Z,80.00
2018-08-20T20:31:43.181Z,80.40
2018-08-20T20:34:13.227Z,80.70
2018-08-20T20:36:43.132Z,81.00
2018-08-20T20:39:13.825Z,81.30
2018-08-20T20:41:44.019Z,81.90
2018-08-20T20:44:13.956Z,81.80
2018-08-20T20:46:43.736Z,81.90
2018-08-20T20:49:13.677Z,82.40
2018-08-20T20:51:43.582Z,82.90
2018-08-20T20:54:13.565Z,82.90
2018-08-20T20:56:43.539Z,83.30
2018-08-20T20:59:13.611Z,84.50
2018-08-20T21:01:43.539Z,84.00
2018-08-20T21:04:13.359Z,83.80
2018-08-20T21:06:43.460Z,84.30
2018-08-20T21:09:14.135Z,84.60
2018-08-20T21:11:44.022Z,84.90
2018-08-20T21:14:14.045Z,84.90
2018-08-20T21:16:44.130Z,85.00
2018-08-20T21:19:13.977Z,85.10
2018-08-20T21:21:43.965Z,85.40
2018-08-20T21:24:13.873Z,85.60
2018-08-20T21:26:43.625Z,85.50
2018-08-20T21:29:13.632Z,86.10
2018-08-20T21:31:48.784Z,86.30
2018-08-20T21:34:18.969Z,86.30
2018-08-20T21:36:48.830Z,87.10
2018-08-20T21:39:18.857Z,87.30
2018-08-20T21:41:48.791Z,87.50
2018-08-20T21:44:18.830Z,87.50
2018-08-20T21:46:48.689Z,88.10
2018-08-20T21:49:18.634Z,88.70
2018-08-20T21:51:53.554Z,88.60
2018-08-20T21:54:28.566Z,88.20
2018-08-20T21:56:58.729Z,88.30
2018-08-20T21:59:28.601Z,88.30
2018-08-20T22:01:58.656Z,88.40
2018-08-20T22:04:30.090Z,89.10
2018-08-20T22:07:00.735Z,89.20
2018-08-20T22:09:30.755Z,89.10
2018-08-20T22:12:00.587Z,89.00
2018-08-20T22:14:30.652Z,88.80
2018-08-20T22:17:00.713Z,89.10
2018-08-20T22:19:30.763Z,89.30
2018-08-20T22:22:00.899Z,89.80
2018-08-20T22:24:30.745Z,89.60
2018-08-20T22:27:00.719Z,89.10
2018-08-20T22:29:37.097Z,89.30
2018-08-20T22:32:09.006Z,89.40
2018-08-20T22:34:39.112Z,89.40
2018-08-20T22:37:09.449Z,89.40
2018-08-20T22:39:39.280Z,89.50
2018-08-20T22:42:09.126Z,89.50
2018-08-20T22:44:39.015Z,90.00
2018-08-20T22:47:08.864Z,89.90
2018-08-20T22:49:38.800Z,89.40
2018-08-20T22:52:10.916Z,90.00
2018-08-20T22:54:40.662Z,89.90
2018-08-20T22:57:10.654Z,90.20
2018-08-20T22:59:40.571Z,90.30
2018-08-20T23:02:10.508Z,90.50
2018-08-20T23:04:40.562Z,90.60
2018-08-20T23:07:13.937Z,90.80
2018-08-20T23:09:43.907Z,90.90
2018-08-20T23:12:13.596Z,90.60
2018-08-20T23:14:43.617Z,90.80
2018-08-20T23:17:14.410Z,90.70
2018-08-20T23:19:44.287Z,90.80
2018-08-20T23:22:14.550Z,90.80
2018-08-20T23:24:58.706Z,91.00
2018-08-20T23:27:33.682Z,91.20
2018-08-20T23:30:04.232Z,91.50
2018-08-20T23:32:34.120Z,91.30
2018-08-20T23:35:04.328Z,91.40
2018-08-20T23:37:34.240Z,91.30
2018-08-20T23:40:04.469Z,91.20
2018-08-20T23:42:34.351Z,91.10
2018-08-20T23:45:04.325Z,91.10
2018-08-20T23:47:34.387Z,91.20
2018-08-20T23:50:04.189Z,90.90
2018-08-20T23:52:34.021Z,91.10
2018-08-20T23:59:56.425Z,91.20
